Thursday, November 15, 2018, 7:10 PM CST
Back to Local

KT82, Fredericksburg, Gillespie County Airport

Location: Fredericksburg, TX, United States Lat: 30.244
Local Time: 7:10 PM CST ( 1:10 GMT) Lon: -98.909
Time Zone: US/Central Elev: 1696 ft

Show me the last for .
Show Coded

Time T Td Feel RH Dir Speed Gust Alt SLP Vis Weather Sky Remarks
2018-11-15 18:55 52 29 - 41 230° 8 - 30.19 - 10 CLR None
2018-11-15 18:35 53 29 - 38 220° 8 - 30.18 - 10 CLR None
2018-11-15 18:15 54 29 - 38 210° 8 - 30.18 - 10 CLR None
2018-11-15 17:55 56 30 - 37 200° 7 - 30.17 - 10 CLR 6-hr Min Temp (6pm): 55.6°F
6-hr Max Temp (6pm): 64.4°F
2018-11-15 17:35 57 30 - 35 200° 6 - 30.17 - 10 CLR None
2018-11-15 17:15 59 30 - 32 210° 6 - 30.16 - 10 CLR None
2018-11-15 16:55 59 31 - 33 200° 5 - 30.16 - 10 CLR None
2018-11-15 16:35 61 30 - 30 200° 10 - 30.17 - 10 CLR None
2018-11-15 16:15 62 29 - 29 200° 9 - 30.16 - 10 CLR None
2018-11-15 15:55 63 29 - 27 200° 8 - 30.16 - 10 CLR None
2018-11-15 15:35 63 30 - 28 210° 6 - 30.16 - 10 CLR None
2018-11-15 15:15 64 28 - 25 280° 5 - 30.16 - 10 CLR None
2018-11-15 14:55 64 28 - 25 240° 7 - 30.16 - 10 CLR None
2018-11-15 14:35 64 27 - 24 - Calm - 30.17 - 10 CLR None
2018-11-15 14:15 63 28 - 26 190° 5 - 30.17 - 10 CLR None
2018-11-15 13:55 64 27 - 24 - Calm - 30.18 - 10 CLR None
2018-11-15 13:35 63 26 - 25 - Calm - 30.18 - 10 CLR None
2018-11-15 13:15 64 27 - 24 230° 5 - 30.19 - 10 CLR None
2018-11-15 12:55 63 27 - 24 300° 5 - 30.21 - 10 CLR None
2018-11-15 12:35 63 27 - 25 280° 6 - 30.22 - 10 CLR None
2018-11-15 12:15 62 26 - 25 - Calm - 30.23 - 10 CLR None
2018-11-15 11:55 61 26 - 26 260° 7 - 30.24 - 10 CLR 6-hr Min Temp (12pm): 27.5°F
6-hr Max Temp (12pm): 61.7°F
2018-11-15 11:35 61 26 - 26 230° 7 - 30.26 - 10 CLR None
2018-11-15 11:15 59 27 - 28 240° 5 - 30.27 - 10 CLR None
2018-11-15 10:55 59 27 - 29 280° 7 - 30.28 - 10 CLR None
2018-11-15 10:35 56 29 - 35 240° 3 - 30.28 - 10 CLR None
2018-11-15 10:15 53 31 - 43 280° 3 - 30.28 - 10 CLR None
2018-11-15 09:55 49 32 - 51 - Calm - 30.29 - 10 CLR None
2018-11-15 09:35 44 32 - 62 - Calm - 30.30 - 10 CLR None
2018-11-15 09:15 42 32 39 67 230° 5 - 30.30 - 10 CLR None
2018-11-15 08:55 38 30 - 72 - Calm - 30.29 - 10 CLR None
2018-11-15 08:35 35 30 - 81 - Calm - 30.30 - 10 CLR None
2018-11-15 08:15 33 29 - 85 - Calm - 30.30 - 10 CLR None
2018-11-15 07:55 31 28 - 86 - Calm - 30.29 - 10 CLR None
2018-11-15 07:35 29 27 - 88 - Calm - 30.29 - 10 CLR None
2018-11-15 07:15 28 25 - 88 - Calm - 30.29 - 10 CLR None
2018-11-15 06:55 28 26 - 89 - Calm - 30.29 - 10 CLR None
2018-11-15 06:35 28 26 - 89 - Calm - 30.29 - 10 CLR None
2018-11-15 06:15 28 26 - 89 - Calm - 30.28 - 10 CLR None
2018-11-15 05:55 28 26 - 89 - Calm - 30.28 - 10 CLR 6-hr Min Temp (6am): 27.7°F
6-hr Max Temp (6am): 30.7°F
2018-11-15 05:35 28 26 - 90 - Calm - 30.28 - 10 CLR None
2018-11-15 05:15 28 26 - 90 - Calm - 30.28 - 10 CLR None
2018-11-15 04:55 28 26 - 91 - Calm - 30.28 - 10 CLR None
2018-11-15 04:35 28 26 - 89 - Calm - 30.29 - 10 CLR None
2018-11-15 04:15 29 26 - 88 - Calm - 30.30 - 10 CLR None
2018-11-15 03:55 29 27 - 89 - Calm - 30.30 - 10 CLR None
2018-11-15 03:35 29 26 - 89 - Calm - 30.30 - 10 CLR None
2018-11-15 03:15 29 26 - 87 - Calm - 30.30 - 10 CLR None
2018-11-15 02:55 29 26 - 86 - Calm - 30.30 - 10 CLR None
2018-11-15 02:35 29 26 - 86 - Calm - 30.31 - 10 CLR None
2018-11-15 02:15 30 26 - 84 - Calm - 30.31 - 10 CLR None
2018-11-15 01:55 30 26 - 85 - Calm - 30.32 - 10 CLR None
2018-11-15 01:35 30 26 - 85 - Calm - 30.32 - 10 CLR None
2018-11-15 01:15 30 26 26 84 310° 3 - 30.32 - 10 CLR None
2018-11-15 00:55 30 26 - 83 - Calm - 30.32 - 10 CLR None
2018-11-15 00:35 30 26 - 84 - Calm - 30.33 - 10 CLR None
2018-11-15 00:15 30 26 25 85 330° 5 - 30.33 - 10 CLR None
2018-11-14 23:55 31 27 27 84 290° 3 - 30.33 - 10 CLR 6-hr Min Temp (12am): 30.2°F
6-hr Max Temp (12am): 45.5°F
24-hr Min Temp (12am): 21.2°F
24-hr Max Temp (12am): 54.3°F
2018-11-14 23:35 31 27 - 84 - Calm - 30.34 - 10 CLR None
2018-11-14 23:15 31 27 - 85 - Calm - 30.35 - 10 CLR None
2018-11-14 22:55 31 27 - 83 - Calm - 30.35 - 10 CLR None
2018-11-14 22:35 32 27 29 80 320° 3 - 30.36 - 10 CLR None
2018-11-14 22:15 32 27 26 82 310° 6 - 30.36 - 10 CLR None
2018-11-14 21:55 32 28 - 84 - Calm - 30.35 - 10 CLR None
2018-11-14 21:35 33 28 30 83 320° 3 - 30.35 - 10 CLR None
2018-11-14 21:15 34 28 31 80 300° 3 - 30.35 - 10 CLR None
2018-11-14 20:55 34 29 31 80 320° 3 - 30.34 - 10 CLR None
2018-11-14 20:35 34 29 - 82 - Calm - 30.34 - 10 CLR None
2018-11-14 20:15 35 29 - 80 - Calm - 30.34 - 10 CLR None
2018-11-14 19:55 38 29 - 72 - Calm - 30.34 - 10 CLR None
2018-11-14 19:35 37 29 - 74 - Calm - 30.34 - 10 CLR None
2018-11-14 19:15 39 27 - 62 - Calm - 30.33 - 10 CLR None

Support USWX by starting your Amazon purchase here.